Observation data for Northwest San Angelo on 02/12/2018      Previous  Date  Next       Current Mesonet Observations  Soil Data  Daily Summary Page  Observations in Plain Language
KASU 120600Z 05003KT M01/M12 A3028 RMK A01 T10111120  RH  044%=      5-min Rain = 0
KASU 120605Z 05003KT M01/M12 A3028 RMK A01 T10091120  RH  043%=      5-min Rain = 0
KASU 120610Z 05003KT M01/M12 A3029 RMK A01 T10091120  RH  043%=      5-min Rain = 0
KASU 120615Z 04002KT M01/M12 A3029 RMK A01 T10101121  RH  043%=      5-min Rain = 0
KASU 120620Z 05002KT M01/M12 A3029 RMK A01 T10131124  RH  043%=      5-min Rain = 0
KASU 120625Z 04001KT M02/M12 A3029 RMK A01 T10191124  RH  045%=      5-min Rain = 0
KASU 120630Z 04001KT M02/M13 A3029 RMK A01 T10241127  RH  046%=      5-min Rain = 0
KASU 120635Z 03001KT M03/M13 A3029 RMK A01 T10281126  RH  048%=      5-min Rain = 0
KASU 120640Z 02001KT M03/M13 A3029 RMK A01 T10271125  RH  048%=      5-min Rain = 0
KASU 120645Z 03002KT M03/M13 A3029 RMK A01 T10291127  RH  048%=      5-min Rain = 0
KASU 120650Z 03001KT M03/M13 A3029 RMK A01 T10291128  RH  047%=      5-min Rain = 0
KASU 120655Z 02002KT M03/M13 A3029 RMK A01 T10291127  RH  048%=      5-min Rain = 0
KASU 120700Z 04002KT M03/M13 A303 RMK A01 T10271125  RH  048%=      5-min Rain = 0
KASU 120705Z 04002KT M03/M13 A303 RMK A01 T10291129  RH  047%=      5-min Rain = 0
KASU 120710Z 04001KT M03/M13 A303 RMK A01 T10341132  RH  047%=      5-min Rain = 0
KASU 120715Z 04001KT M04/M13 A303 RMK A01 T10371131  RH  049%=      5-min Rain = 0
KASU 120720Z 05001KT M04/M13 A303 RMK A01 T10361131  RH  049%=      5-min Rain = 0
KASU 120725Z 06001KT M04/M13 A303 RMK A01 T10381132  RH  049%=      5-min Rain = 0
KASU 120730Z 05000KT M04/M13 A303 RMK A01 T10361129  RH  049%=      5-min Rain = 0
KASU 120735Z 03001KT M04/M13 A303 RMK A01 T10361127  RH  050%=      5-min Rain = 0
KASU 120740Z 03002KT M04/M13 A303 RMK A01 T10351129  RH  049%=      5-min Rain = 0
KASU 120745Z 04001KT M04/M13 A3031 RMK A01 T10401133  RH  049%=      5-min Rain = 0
KASU 120750Z 04001KT M04/M13 A303 RMK A01 T10411130  RH  051%=      5-min Rain = 0
KASU 120755Z 03001KT M04/M13 A303 RMK A01 T10391126  RH  052%=      5-min Rain = 0
KASU 120800Z 03002KT M04/M13 A303 RMK A01 T10361125  RH  051%=      5-min Rain = 0
KASU 120805Z 03002KT M04/M13 A303 RMK A01 T10351127  RH  050%=      5-min Rain = 0
KASU 120810Z 03003KT M03/M12 A3031 RMK A01 T10291123  RH  049%=      5-min Rain = 0
KASU 120815Z 03003KT M02/M12 A3031 RMK A01 T10241123  RH  047%=      5-min Rain = 0
KASU 120820Z 03003KT M03/M12 A3031 RMK A01 T10251124  RH  047%=      5-min Rain = 0
KASU 120825Z 04004KT M03/M12 A3031 RMK A01 T10261123  RH  048%=      5-min Rain = 0
KASU 120830Z 04004KT M02/M12 A303 RMK A01 T10231121  RH  047%=      5-min Rain = 0
KASU 120835Z 03003KT M02/M12 A303 RMK A01 T10231122  RH  047%=      5-min Rain = 0
KASU 120840Z 03004KT M02/M12 A303 RMK A01 T10221122  RH  047%=      5-min Rain = 0
KASU 120845Z 03003KT M02/M12 A303 RMK A01 T10221123  RH  047%=      5-min Rain = 0
KASU 120850Z 02003KT M02/M12 A3031 RMK A01 T10231122  RH  047%=      5-min Rain = 0
KASU 120855Z 03004KT M02/M12 A3031 RMK A01 T10221122  RH  047%=      5-min Rain = 0
KASU 120900Z 05004KT M03/M13 A3031 RMK A01 T10261125  RH  047%=      5-min Rain = 0
KASU 120905Z 06004KT M03/M13 A303 RMK A01 T10321128  RH  048%=      5-min Rain = 0
KASU 120910Z 06003KT M04/M13 A3031 RMK A01 T10391133  RH  049%=      5-min Rain = 0
KASU 120915Z 04003KT M03/M13 A3031 RMK A01 T10331125  RH  050%=      5-min Rain = 0
KASU 120920Z 03003KT M03/M12 A3031 RMK A01 T10271123  RH  048%=      5-min Rain = 0
KASU 120925Z 03003KT M03/M12 A3031 RMK A01 T10281124  RH  048%=      5-min Rain = 0
KASU 120930Z 04004KT M03/M12 A3031 RMK A01 T10271123  RH  048%=      5-min Rain = 0
KASU 120935Z 04004KT M03/M12 A303 RMK A01 T10281123  RH  049%=      5-min Rain = 0
KASU 120940Z 03004KT M03/M12 A303 RMK A01 T10271122  RH  048%=      5-min Rain = 0
KASU 120945Z 03004KT M03/M12 A3031 RMK A01 T10251123  RH  048%=      5-min Rain = 0
KASU 120950Z 04003KT M03/M12 A3031 RMK A01 T10251123  RH  047%=      5-min Rain = 0
KASU 120955Z 04004KT M03/M12 A3031 RMK A01 T10251124  RH  047%=      5-min Rain = 0
KASU 121000Z 04004KT M03/M12 A3031 RMK A01 T10251124  RH  047%=      5-min Rain = 0
KASU 121005Z 04003KT M03/M13 A3031 RMK A01 T10261125  RH  047%=      5-min Rain = 0
KASU 121010Z 04004KT M03/M12 A3031 RMK A01 T10261124  RH  048%=      5-min Rain = 0
KASU 121015Z 05002KT M03/M13 A3031 RMK A01 T10281126  RH  048%=      5-min Rain = 0
KASU 121020Z 05003KT M03/M13 A3031 RMK A01 T10301126  RH  048%=      5-min Rain = 0
KASU 121025Z 05002KT M03/M13 A3031 RMK A01 T10321125  RH  049%=      5-min Rain = 0
KASU 121030Z 06002KT M03/M13 A3031 RMK A01 T10341128  RH  049%=      5-min Rain = 0
KASU 121035Z 03002KT M04/M13 A3031 RMK A01 T10381129  RH  050%=      5-min Rain = 0
KASU 121040Z 05001KT M04/M13 A3031 RMK A01 T10391128  RH  051%=      5-min Rain = 0
KASU 121045Z 08002KT M04/M13 A3031 RMK A01 T10391127  RH  051%=      5-min Rain = 0
KASU 121050Z 07004KT M04/M13 A3031 RMK A01 T10371126  RH  051%=      5-min Rain = 0
KASU 121055Z 07004KT M04/M13 A303 RMK A01 T10401128  RH  051%=      5-min Rain = 0
KASU 121100Z 07002KT M04/M13 A3031 RMK A01 T10411129  RH  051%=      5-min Rain = 0
KASU 121105Z 07000KT M04/M13 A3032 RMK A01 T10411127  RH  052%=      5-min Rain = 0
KASU 121110Z 06000KT M05/M13 A3032 RMK A01 T10451130  RH  052%=      5-min Rain = 0
KASU 121115Z 29001KT M05/M13 A3033 RMK A01 T10481130  RH  053%=      5-min Rain = 0
KASU 121120Z 29002KT M06/M13 A3033 RMK A01 T10561133  RH  055%=      5-min Rain = 0
KASU 121125Z 32002KT M06/M13 A3033 RMK A01 T10551128  RH  057%=      5-min Rain = 0
KASU 121130Z 33001KT M05/M13 A3032 RMK A01 T10541126  RH  058%=      5-min Rain = 0
KASU 121135Z 35002KT M05/M13 A3032 RMK A01 T10531127  RH  057%=      5-min Rain = 0
KASU 121140Z 33002KT M06/M13 A3033 RMK A01 T10571132  RH  056%=      5-min Rain = 0
KASU 121145Z 31003KT M06/M13 A3034 RMK A01 T10601131  RH  058%=      5-min Rain = 0
KASU 121150Z 31003KT M06/M13 A3035 RMK A01 T10571127  RH  059%=      5-min Rain = 0
KASU 121155Z 34003KT M05/M13 A3034 RMK A01 T10541126  RH  058%=      5-min Rain = 0
KASU 121200Z 00002KT M05/M13 A3034 RMK A01 T10531126  RH  057%=      5-min Rain = 0
KASU 121205Z 03002KT M06/M13 A3034 RMK A01 T10551128  RH  057%=      5-min Rain = 0
KASU 121210Z 03001KT M06/M13 A3034 RMK A01 T10571128  RH  058%=      5-min Rain = 0
KASU 121215Z 05002KT M06/M13 A3034 RMK A01 T10561126  RH  058%=      5-min Rain = 0
KASU 121220Z 05002KT M06/M13 A3034 RMK A01 T10551126  RH  058%=      5-min Rain = 0
KASU 121225Z 05002KT M06/M13 A3034 RMK A01 T10561128  RH  058%=      5-min Rain = 0
KASU 121230Z 06003KT M05/M12 A3034 RMK A01 T10511122  RH  058%=      5-min Rain = 0
KASU 121235Z 05005KT M05/M12 A3033 RMK A01 T10471120  RH  057%=      5-min Rain = 0
KASU 121240Z 02002KT M04/M12 A3035 RMK A01 T10431120  RH  056%=      5-min Rain = 0
KASU 121245Z 00001KT M04/M12 A3035 RMK A01 T10421123  RH  054%=      5-min Rain = 0
KASU 121250Z 31001KT M04/M12 A3035 RMK A01 T10411122  RH  054%=      5-min Rain = 0
KASU 121255Z 32002KT M04/M12 A3035 RMK A01 T10431120  RH  056%=      5-min Rain = 0
KASU 121300Z 03003KT M04/M12 A3034 RMK A01 T10441119  RH  057%=      5-min Rain = 0
KASU 121305Z 04002KT M04/M12 A3035 RMK A01 T10411119  RH  055%=      5-min Rain = 0
KASU 121310Z 36001KT M05/M13 A3035 RMK A01 T10481125  RH  056%=      5-min Rain = 0
KASU 121315Z 03002KT M05/M12 A3035 RMK A01 T10491121  RH  058%=      5-min Rain = 0
KASU 121320Z 03002KT M05/M12 A3035 RMK A01 T10501122  RH  058%=      5-min Rain = 0
KASU 121325Z 05005KT M05/M12 A3034 RMK A01 T10461118  RH  058%=      5-min Rain = 0
KASU 121330Z 04004KT M04/M12 A3034 RMK A01 T10381117  RH  055%=      5-min Rain = 0
KASU 121335Z 04004KT M03/M12 A3034 RMK A01 T10311119  RH  052%=      5-min Rain = 0
KASU 121340Z 06005KT M03/M12 A3035 RMK A01 T10311120  RH  051%=      5-min Rain = 0
KASU 121345Z 06004KT M03/M12 A3035 RMK A01 T10311121  RH  051%=      5-min Rain = 0
KASU 121350Z 06003KT M03/M12 A3035 RMK A01 T10331123  RH  051%=      5-min Rain = 0
KASU 121355Z 05002KT M03/M12 A3035 RMK A01 T10331121  RH  051%=      5-min Rain = 0
KASU 121400Z 05003KT M03/M12 A3035 RMK A01 T10291120  RH  050%=      5-min Rain = 0
KASU 121405Z 06004KT M03/M12 A3035 RMK A01 T10281119  RH  050%=      5-min Rain = 0
KASU 121410Z 06004KT M02/M12 A3035 RMK A01 T10221116  RH  049%=      5-min Rain = 0
KASU 121415Z 06005KT M02/M12 A3035 RMK A01 T10241118  RH  049%=      5-min Rain = 0
KASU 121420Z 07005KT M02/M12 A3035 RMK A01 T10231119  RH  049%=      5-min Rain = 0
KASU 121425Z 07006KT M02/M12 A3035 RMK A01 T10191119  RH  047%=      5-min Rain = 0
KASU 121430Z 07008KT M01/M12 A3035 RMK A01 T10121117  RH  045%=      5-min Rain = 0
KASU 121435Z 08008KT M01/M12 A3035 RMK A01 T10061117  RH  043%=      5-min Rain = 0
KASU 121440Z 09009KT M00/M12 A3035 RMK A01 T10031118  RH  042%=      5-min Rain = 0
KASU 121445Z 08009KT M00/M12 A3035 RMK A01 T10021118  RH  042%=      5-min Rain = 0
KASU 121450Z 08009KT M00/M12 A3036 RMK A01 T10011119  RH  041%=      5-min Rain = 0
KASU 121455Z 08009KT 00/M12 A3036 RMK A01 T00011120  RH  040%=      5-min Rain = 0
KASU 121500Z 09009KT 00/M12 A3036 RMK A01 T00031119  RH  040%=      5-min Rain = 0
KASU 121505Z 09009KT 01/M12 A3036 RMK A01 T00061119  RH  039%=      5-min Rain = 0
KASU 121510Z 09010KT 01/M12 A3037 RMK A01 T00071119  RH  039%=      5-min Rain = 0
KASU 121515Z 10010KT 01/M12 A3037 RMK A01 T00101119  RH  038%=      5-min Rain = 0
KASU 121520Z 09011KT 01/M12 A3037 RMK A01 T00121119  RH  037%=      5-min Rain = 0
KASU 121525Z 09010KT 02/M12 A3037 RMK A01 T00161118  RH  037%=      5-min Rain = 0
KASU 121530Z 10009KT 02/M12 A3037 RMK A01 T00161119  RH  037%=      5-min Rain = 0
KASU 121535Z 11010KT 02/M12 A3037 RMK A01 T00181118  RH  036%=      5-min Rain = 0
KASU 121540Z 10010KT 02/M12 A3037 RMK A01 T00171119  RH  036%=      5-min Rain = 0
KASU 121545Z 11009KT 02/M12 A3037 RMK A01 T00181117  RH  037%=      5-min Rain = 0
KASU 121550Z 12010KT 02/M12 A3037 RMK A01 T00211117  RH  036%=      5-min Rain = 0
KASU 121555Z 09010KT 02/M12 A3037 RMK A01 T00221116  RH  036%=      5-min Rain = 0
KASU 121600Z 11009G14KT 02/M12 A3037 RMK A01 T00241117  RH  035%=      5-min Rain = 0
KASU 121605Z 11010KT 03/M12 A3037 RMK A01 T00251117  RH  035%=      5-min Rain = 0
KASU 121610Z 11010KT 03/M12 A3037 RMK A01 T00281117  RH  034%=      5-min Rain = 0
KASU 121615Z 10009KT 03/M12 A3037 RMK A01 T00281116  RH  034%=      5-min Rain = 0
KASU 121620Z 11010G17KT 03/M11 A3037 RMK A01 T00341114  RH  033%=      5-min Rain = 0
KASU 121625Z 12010G15KT 03/M12 A3037 RMK A01 T00301116  RH  034%=      5-min Rain = 0
KASU 121630Z 10011KT 03/M12 A3037 RMK A01 T00311116  RH  034%=      5-min Rain = 0
KASU 121635Z 10010G15KT 03/M11 A3037 RMK A01 T00331114  RH  034%=      5-min Rain = 0
KASU 121640Z 10010KT 03/M12 A3037 RMK A01 T00331115  RH  033%=      5-min Rain = 0
KASU 121645Z 10010KT 04/M11 A3038 RMK A01 T00351114  RH  033%=      5-min Rain = 0
KASU 121650Z 10009KT 04/M11 A3038 RMK A01 T00361112  RH  033%=      5-min Rain = 0
KASU 121655Z 11008G13KT 04/M11 A3037 RMK A01 T00381110  RH  034%=      5-min Rain = 0
KASU 121700Z 10009KT 04/M11 A3037 RMK A01 T00391109  RH  033%=      5-min Rain = 0
KASU 121705Z 10009KT 04/M11 A3037 RMK A01 T00421109  RH  033%=      5-min Rain = 0
KASU 121710Z 09009KT 04/M11 A3037 RMK A01 T00441107  RH  033%=      5-min Rain = 0
KASU 121715Z 10010KT 04/M11 A3037 RMK A01 T00441108  RH  033%=      5-min Rain = 0
KASU 121720Z 10009KT 05/M10 A3036 RMK A01 T00481104  RH  033%=      5-min Rain = 0
KASU 121725Z 10010KT 05/M11 A3036 RMK A01 T00481105  RH  032%=      5-min Rain = 0
KASU 121730Z 10009KT 05/M10 A3036 RMK A01 T00491103  RH  033%=      5-min Rain = 0
KASU 121735Z 09009KT 05/M10 A3036 RMK A01 T00521101  RH  032%=      5-min Rain = 0
KASU 121740Z 13010KT 06/M10 A3036 RMK A01 T00561102  RH  031%=      5-min Rain = 0
KASU 121745Z 13008KT 06/M10 A3035 RMK A01 T00561101  RH  031%=      5-min Rain = 0
KASU 121750Z 10009KT 06/M10 A3035 RMK A01 T00591101  RH  031%=      5-min Rain = 0
KASU 121755Z 09009KT 06/M10 A3035 RMK A01 T00621101  RH  031%=      5-min Rain = 0
KASU 121800Z 09009KT 06/M10 A3034 RMK A01 T00621102  RH  030%=      5-min Rain = 0
KASU 121805Z 11008KT 07/M10 A3034 RMK A01 T00661100  RH  030%=      5-min Rain = 0
KASU 121810Z 10009KT 07/M10 A3034 RMK A01 T00681100  RH  029%=      5-min Rain = 0
KASU 121815Z 10008KT 07/M10 A3033 RMK A01 T00681099  RH  030%=      5-min Rain = 0
KASU 121820Z 08010G15KT 07/M10 A3033 RMK A01 T00721098  RH  029%=      5-min Rain = 0
KASU 121825Z 11009G14KT 07/M10 A3032 RMK A01 T00741099  RH  028%=      5-min Rain = 0
KASU 121830Z 10010KT 07/M10 A3032 RMK A01 T00741097  RH  029%=      5-min Rain = 0
KASU 121835Z 09009G14KT 08/M10 A3031 RMK A01 T00761097  RH  029%=      5-min Rain = 0
KASU 121840Z 08008KT 08/M10 A3031 RMK A01 T00761095  RH  029%=      5-min Rain = 0
KASU 121845Z 10009G16KT 08/M10 A3031 RMK A01 T00791096  RH  028%=      5-min Rain = 0
KASU 121850Z 09010KT 08/M09 A303 RMK A01 T00801094  RH  028%=      5-min Rain = 0
KASU 121855Z 10008G13KT 08/M09 A303 RMK A01 T00831094  RH  028%=      5-min Rain = 0
KASU 121900Z 08010G15KT 08/M10 A303 RMK A01 T00821095  RH  028%=      5-min Rain = 0
KASU 121905Z 10008KT 08/M09 A3029 RMK A01 T00841093  RH  028%=      5-min Rain = 0
KASU 121910Z 10011KT 09/M09 A3029 RMK A01 T00901093  RH  027%=      5-min Rain = 0
KASU 121915Z 10008G15KT 08/M09 A3028 RMK A01 T00841094  RH  028%=      5-min Rain = 0
KASU 121920Z 09011G16KT 09/M09 A3028 RMK A01 T00881091  RH  027%=      5-min Rain = 0
KASU 121925Z 09009G14KT 09/M09 A3028 RMK A01 T00891092  RH  027%=      5-min Rain = 0
KASU 121930Z 09010G16KT 09/M09 A3027 RMK A01 T00911092  RH  027%=      5-min Rain = 0
KASU 121935Z 11008G14KT 10/M09 A3027 RMK A01 T00971090  RH  026%=      5-min Rain = 0
KASU 121940Z 10009KT 10/M09 A3026 RMK A01 T00951093  RH  026%=      5-min Rain = 0
KASU 121945Z 09007KT 09/M09 A3026 RMK A01 T00941091  RH  026%=      5-min Rain = 0
KASU 121950Z 08010G16KT 10/M09 A3025 RMK A01 T00961091  RH  026%=      5-min Rain = 0
KASU 121955Z 11009KT 10/M09 A3025 RMK A01 T00981091  RH  026%=      5-min Rain = 0
KASU 122000Z 09008G13KT 10/M09 A3025 RMK A01 T01001090  RH  026%=      5-min Rain = 0
KASU 122005Z 11009G14KT 10/M09 A3025 RMK A01 T01021090  RH  025%=      5-min Rain = 0
KASU 122010Z 08010G15KT 10/M09 A3024 RMK A01 T01011090  RH  025%=      5-min Rain = 0
KASU 122015Z 08010KT 10/M09 A3024 RMK A01 T01041089  RH  025%=      5-min Rain = 0
KASU 122020Z 10011KT 11/M09 A3024 RMK A01 T01051089  RH  025%=      5-min Rain = 0
KASU 122025Z 10010KT 11/M09 A3024 RMK A01 T01071089  RH  025%=      5-min Rain = 0
KASU 122030Z 09010G16KT 11/M09 A3023 RMK A01 T01081088  RH  025%=      5-min Rain = 0
KASU 122035Z 09011G16KT 11/M09 A3023 RMK A01 T01091089  RH  024%=      5-min Rain = 0
KASU 122040Z 11009G14KT 11/M09 A3023 RMK A01 T01111090  RH  024%=      5-min Rain = 0
KASU 122045Z 10010G15KT 11/M09 A3023 RMK A01 T01121089  RH  024%=      5-min Rain = 0
KASU 122050Z 11007G12KT 11/M09 A3023 RMK A01 T01131089  RH  024%=      5-min Rain = 0
KASU 122055Z 10012G17KT 11/M09 A3023 RMK A01 T01121090  RH  024%=      5-min Rain = 0
KASU 122100Z 12008G13KT 12/M09 A3023 RMK A01 T01151088  RH  023%=      5-min Rain = 0
KASU 122105Z 11008KT 12/M09 A3022 RMK A01 T01171089  RH  023%=      5-min Rain = 0
KASU 122110Z 11011G16KT 12/M09 A3022 RMK A01 T01171089  RH  023%=      5-min Rain = 0
KASU 122115Z 10008G14KT 12/M09 A3022 RMK A01 T01211087  RH  023%=      5-min Rain = 0
KASU 122120Z 09010KT 12/M09 A3022 RMK A01 T01211088  RH  023%=      5-min Rain = 0
KASU 122125Z 09012G17KT 12/M09 A3022 RMK A01 T01221087  RH  023%=      5-min Rain = 0
KASU 122130Z 11009G16KT 12/M09 A3022 RMK A01 T01201088  RH  023%=      5-min Rain = 0
KASU 122135Z 10010G16KT 12/M09 A3022 RMK A01 T01211088  RH  023%=      5-min Rain = 0
KASU 122140Z 09010G15KT 13/M09 A3021 RMK A01 T01251087  RH  022%=      5-min Rain = 0
KASU 122145Z 10011KT 13/M09 A3021 RMK A01 T01271087  RH  022%=      5-min Rain = 0
KASU 122150Z 09010KT 13/M09 A3021 RMK A01 T01271087  RH  022%=      5-min Rain = 0
KASU 122155Z 09009KT 13/M09 A3021 RMK A01 T01301086  RH  022%=      5-min Rain = 0
KASU 122200Z 10010KT 13/M09 A3021 RMK A01 T01281088  RH  022%=      5-min Rain = 0
KASU 122205Z 08011KT 13/M09 A3021 RMK A01 T01251087  RH  022%=      5-min Rain = 0
KASU 122210Z 08010G15KT 13/M09 A302 RMK A01 T01281087  RH  022%=      5-min Rain = 0
KASU 122215Z 09010G17KT 13/M09 A302 RMK A01 T01311086  RH  022%=      5-min Rain = 0
KASU 122220Z 09009KT 13/M09 A302 RMK A01 T01301088  RH  021%=      5-min Rain = 0
KASU 122225Z 10010G15KT 13/M09 A302 RMK A01 T01281088  RH  022%=      5-min Rain = 0
KASU 122230Z 08010G15KT 13/M09 A302 RMK A01 T01291087  RH  022%=      5-min Rain = 0
KASU 122235Z 08012KT 13/M09 A302 RMK A01 T01311087  RH  021%=      5-min Rain = 0
KASU 122240Z 08010KT 13/M09 A302 RMK A01 T01301087  RH  021%=      5-min Rain = 0
KASU 122245Z 08011KT 13/M09 A302 RMK A01 T01301087  RH  021%=      5-min Rain = 0
KASU 122250Z 09011KT 13/M09 A302 RMK A01 T01311087  RH  021%=      5-min Rain = 0
KASU 122255Z 10011KT 13/M09 A302 RMK A01 T01311087  RH  021%=      5-min Rain = 0
KASU 122300Z 08012G19KT 13/M09 A302 RMK A01 T01311086  RH  021%=      5-min Rain = 0
KASU 122305Z 08013KT 13/M09 A302 RMK A01 T01311086  RH  021%=      5-min Rain = 0
KASU 122310Z 09012KT 13/M09 A302 RMK A01 T01311086  RH  021%=      5-min Rain = 0
KASU 122315Z 09011KT 13/M09 A302 RMK A01 T01301086  RH  022%=      5-min Rain = 0
KASU 122320Z 09012KT 13/M09 A302 RMK A01 T01301086  RH  022%=      5-min Rain = 0
KASU 122325Z 09012KT 13/M09 A302 RMK A01 T01291086  RH  022%=      5-min Rain = 0
KASU 122330Z 08011KT 13/M09 A302 RMK A01 T01291086  RH  022%=      5-min Rain = 0
KASU 122335Z 08011KT 13/M09 A302 RMK A01 T01281086  RH  022%=      5-min Rain = 0
KASU 122340Z 07012KT 13/M09 A302 RMK A01 T01251087  RH  022%=      5-min Rain = 0
KASU 122345Z 08012KT 13/M09 A302 RMK A01 T01261086  RH  022%=      5-min Rain = 0
KASU 122350Z 07011KT 13/M09 A302 RMK A01 T01251086  RH  022%=      5-min Rain = 0
KASU 122355Z 08011KT 12/M09 A302 RMK A01 T01231087  RH  023%=      5-min Rain = 0
KASU 130000Z 08010KT 12/M09 A302 RMK A01 T01211087  RH  023%=      5-min Rain = 0
KASU 130005Z 08010KT 12/M09 A302 RMK A01 T01201087  RH  023%=      5-min Rain = 0
KASU 130010Z 09011KT 12/M09 A302 RMK A01 T01191086  RH  023%=      5-min Rain = 0
KASU 130015Z 08010KT 12/M09 A302 RMK A01 T01161087  RH  024%=      5-min Rain = 0
KASU 130020Z 07010KT 11/M09 A3021 RMK A01 T01131087  RH  024%=      5-min Rain = 0
KASU 130025Z 08010KT 11/M09 A3021 RMK A01 T01091087  RH  025%=      5-min Rain = 0
KASU 130030Z 08009KT 11/M09 A3021 RMK A01 T01071087  RH  025%=      5-min Rain = 0
KASU 130035Z 08009KT 10/M09 A3021 RMK A01 T01041087  RH  025%=      5-min Rain = 0
KASU 130040Z 08009KT 10/M09 A3021 RMK A01 T01031087  RH  026%=      5-min Rain = 0
KASU 130045Z 08009KT 10/M09 A3022 RMK A01 T01021087  RH  026%=      5-min Rain = 0
KASU 130050Z 08009KT 10/M09 A3022 RMK A01 T01011087  RH  026%=      5-min Rain = 0
KASU 130055Z 07008KT 10/M09 A3022 RMK A01 T00981087  RH  027%=      5-min Rain = 0
KASU 130100Z 07008KT 10/M09 A3022 RMK A01 T00961086  RH  027%=      5-min Rain = 0
KASU 130105Z 07008KT 09/M09 A3022 RMK A01 T00941086  RH  027%=      5-min Rain = 0
KASU 130110Z 07008KT 09/M09 A3022 RMK A01 T00911086  RH  028%=      5-min Rain = 0
KASU 130115Z 07008KT 09/M09 A3022 RMK A01 T00891086  RH  028%=      5-min Rain = 0
KASU 130120Z 08009KT 09/M09 A3022 RMK A01 T00881085  RH  029%=      5-min Rain = 0
KASU 130125Z 08009KT 09/M09 A3022 RMK A01 T00871085  RH  029%=      5-min Rain = 0
KASU 130130Z 08009KT 09/M09 A3022 RMK A01 T00871085  RH  029%=      5-min Rain = 0
KASU 130135Z 07009KT 09/M08 A3022 RMK A01 T00861084  RH  029%=      5-min Rain = 0
KASU 130140Z 07008KT 09/M09 A3023 RMK A01 T00851085  RH  030%=      5-min Rain = 0
KASU 130145Z 07009KT 08/M09 A3023 RMK A01 T00841085  RH  030%=      5-min Rain = 0
KASU 130150Z 07009KT 08/M09 A3023 RMK A01 T00831085  RH  030%=      5-min Rain = 0
KASU 130155Z 07010KT 08/M09 A3023 RMK A01 T00821085  RH  030%=      5-min Rain = 0
KASU 130200Z 07010KT 08/M09 A3023 RMK A01 T00821085  RH  030%=      5-min Rain = 0
KASU 130205Z 07010KT 08/M08 A3023 RMK A01 T00821084  RH  030%=      5-min Rain = 0
KASU 130210Z 07010KT 08/M08 A3023 RMK A01 T00811084  RH  030%=      5-min Rain = 0
KASU 130215Z 07010KT 08/M08 A3023 RMK A01 T00811084  RH  031%=      5-min Rain = 0
KASU 130220Z 08011KT 08/M08 A3023 RMK A01 T00801084  RH  031%=      5-min Rain = 0
KASU 130225Z 07010KT 08/M08 A3023 RMK A01 T00791084  RH  031%=      5-min Rain = 0
KASU 130230Z 07010KT 08/M08 A3023 RMK A01 T00771084  RH  031%=      5-min Rain = 0
KASU 130235Z 07009KT 08/M08 A3024 RMK A01 T00751084  RH  032%=      5-min Rain = 0
KASU 130240Z 07008KT 07/M08 A3024 RMK A01 T00731084  RH  032%=      5-min Rain = 0
KASU 130245Z 07008KT 07/M08 A3024 RMK A01 T00701084  RH  033%=      5-min Rain = 0
KASU 130250Z 07008KT 07/M08 A3024 RMK A01 T00681084  RH  033%=      5-min Rain = 0
KASU 130255Z 08008KT 07/M08 A3025 RMK A01 T00661084  RH  034%=      5-min Rain = 0
KASU 130300Z 08008KT 06/M08 A3025 RMK A01 T00641084  RH  034%=      5-min Rain = 0
KASU 130305Z 08008KT 06/M08 A3025 RMK A01 T00641083  RH  034%=      5-min Rain = 0
KASU 130310Z 08008KT 06/M08 A3025 RMK A01 T00631083  RH  035%=      5-min Rain = 0
KASU 130315Z 08009KT 06/M08 A3025 RMK A01 T00641082  RH  035%=      5-min Rain = 0
KASU 130320Z 08008KT 06/M08 A3025 RMK A01 T00641082  RH  035%=      5-min Rain = 0
KASU 130325Z 08008KT 06/M08 A3025 RMK A01 T00621082  RH  035%=      5-min Rain = 0
KASU 130330Z 08008KT 06/M08 A3025 RMK A01 T00601082  RH  036%=      5-min Rain = 0
KASU 130335Z 09007KT 06/M08 A3025 RMK A01 T00581083  RH  036%=      5-min Rain = 0
KASU 130340Z 09006KT 05/M08 A3026 RMK A01 T00531084  RH  037%=      5-min Rain = 0
KASU 130345Z 10006KT 05/M08 A3026 RMK A01 T00521084  RH  037%=      5-min Rain = 0
KASU 130350Z 09006KT 05/M09 A3026 RMK A01 T00491085  RH  038%=      5-min Rain = 0
KASU 130355Z 09006KT 04/M09 A3026 RMK A01 T00441087  RH  038%=      5-min Rain = 0
KASU 130400Z 09007KT 04/M09 A3026 RMK A01 T00431087  RH  039%=      5-min Rain = 0
KASU 130405Z 09007KT 04/M09 A3026 RMK A01 T00411087  RH  039%=      5-min Rain = 0
KASU 130410Z 09005KT 04/M09 A3026 RMK A01 T00401087  RH  039%=      5-min Rain = 0
KASU 130415Z 09005KT 04/M09 A3027 RMK A01 T00391087  RH  040%=      5-min Rain = 0
KASU 130420Z 10004KT 04/M09 A3027 RMK A01 T00381087  RH  040%=      5-min Rain = 0
KASU 130425Z 10003KT 04/M09 A3027 RMK A01 T00371087  RH  040%=      5-min Rain = 0
KASU 130430Z 10003KT 04/M09 A3027 RMK A01 T00371087  RH  040%=      5-min Rain = 0
KASU 130435Z 10003KT 04/M09 A3027 RMK A01 T00361086  RH  041%=      5-min Rain = 0
KASU 130440Z 09003KT 03/M09 A3027 RMK A01 T00341087  RH  041%=      5-min Rain = 0
KASU 130445Z 08003KT 04/M08 A3027 RMK A01 T00371084  RH  041%=      5-min Rain = 0
KASU 130450Z 08005KT 04/M09 A3027 RMK A01 T00361086  RH  041%=      5-min Rain = 0
KASU 130455Z 09006KT 03/M09 A3027 RMK A01 T00321086  RH  042%=      5-min Rain = 0
KASU 130500Z 08006KT 03/M09 A3028 RMK A01 T00321086  RH  042%=      5-min Rain = 0
KASU 130505Z 07005KT 03/M09 A3028 RMK A01 T00291087  RH  043%=      5-min Rain = 0
KASU 130510Z 07006KT 03/M09 A3028 RMK A01 T00281085  RH  044%=      5-min Rain = 0
KASU 130515Z 08006KT 03/M08 A3028 RMK A01 T00271084  RH  044%=      5-min Rain = 0
KASU 130520Z 08006KT 02/M09 A3028 RMK A01 T00241085  RH  045%=      5-min Rain = 0
KASU 130525Z 08006KT 02/M08 A3028 RMK A01 T00241083  RH  046%=      5-min Rain = 0
KASU 130530Z 08007KT 03/M08 A3028 RMK A01 T00281079  RH  046%=      5-min Rain = 0
KASU 130535Z 08007KT 03/M08 A3028 RMK A01 T00301076  RH  046%=      5-min Rain = 0
KASU 130540Z 09007KT 03/M07 A3028 RMK A01 T00301074  RH  047%=      5-min Rain = 0
KASU 130545Z 09007KT 03/M07 A3028 RMK A01 T00311071  RH  048%=      5-min Rain = 0
KASU 130550Z 08007KT 03/M07 A3028 RMK A01 T00311069  RH  048%=      5-min Rain = 0
KASU 130555Z 08008KT 03/M07 A3028 RMK A01 T00331066  RH  049%=      5-min Rain = 0

Page generated in 0.0098 seconds.